createdAt,value
2019-03-16T00:00:06.836Z,7.2
2019-03-16T00:15:08.123Z,7.2
2019-03-16T00:30:12.384Z,7.2
2019-03-16T00:47:21.204Z,7.2
2019-03-16T01:00:03.634Z,7.1
2019-03-16T01:15:08.180Z,7.1
2019-03-16T01:32:18.396Z,7.1
2019-03-16T01:45:08.445Z,7
2019-03-16T02:00:03.418Z,6.9
2019-03-16T02:32:16.792Z,6.8
2019-03-16T02:45:05.673Z,6.8
2019-03-16T03:00:12.790Z,6.8
2019-03-16T03:17:20.149Z,6.8
2019-03-16T03:32:15.076Z,6.8
2019-03-16T03:45:11.636Z,6.8
2019-03-16T04:02:21.408Z,6.8
2019-03-16T04:15:11.798Z,6.8
2019-03-16T04:30:06.884Z,6.9
2019-03-16T04:45:05.354Z,6.8
2019-03-16T05:00:10.077Z,6.8
2019-03-16T05:17:16.771Z,6.8
2019-03-16T05:30:07.515Z,6.8
2019-03-16T05:45:12.437Z,6.7
2019-03-16T06:00:12.234Z,6.8
2019-03-16T06:15:09.860Z,6.9
2019-03-16T06:30:08.031Z,7
2019-03-16T06:45:10.463Z,7.2
2019-03-16T07:00:06.265Z,7.3
2019-03-16T07:15:12.657Z,7.4
2019-03-16T07:30:07.747Z,7.6
2019-03-16T07:45:13.146Z,7.8
2019-03-16T08:00:06.668Z,7.8
2019-03-16T08:15:11.244Z,8.2
2019-03-16T08:32:21.088Z,8.4
2019-03-16T08:47:16.063Z,8.5
2019-03-16T09:02:15.135Z,8.8
2019-03-16T09:15:05.621Z,9.3
2019-03-16T09:30:05.652Z,9.4
2019-03-16T09:45:05.713Z,9.9
2019-03-16T10:00:05.744Z,10.3
2019-03-16T10:15:05.786Z,10.7
2019-03-16T10:30:05.815Z,10.4
2019-03-16T10:45:05.872Z,10.5
2019-03-16T11:02:15.904Z,10.5
2019-03-16T11:15:05.438Z,10.9
2019-03-16T11:30:10.058Z,11
2019-03-16T11:47:23.368Z,11.3
2019-03-16T12:00:06.755Z,11.3
2019-03-16T12:15:09.709Z,11.6
2019-03-16T12:30:09.259Z,11.8
2019-03-16T12:45:05.179Z,12.2
2019-03-16T13:00:03.799Z,12.7
2019-03-16T13:15:09.599Z,12.8
2019-03-16T13:30:09.506Z,12.8
2019-03-16T13:45:10.985Z,12.9
2019-03-16T14:00:12.660Z,12.9
2019-03-16T14:15:04.142Z,12.8
2019-03-16T14:30:07.610Z,13.1
2019-03-16T14:45:12.809Z,13.4
2019-03-16T15:00:05.879Z,14
2019-03-16T15:15:07.774Z,13.3
2019-03-16T15:30:11.739Z,12.9
2019-03-16T15:45:12.533Z,13.1
2019-03-16T16:00:04.630Z,12.5
2019-03-16T16:15:04.687Z,12.2
2019-03-16T16:30:07.441Z,12.1
2019-03-16T16:45:12.388Z,11.9
2019-03-16T17:00:04.212Z,11.6
2019-03-16T17:15:06.962Z,11.4
2019-03-16T17:30:06.307Z,11.8
2019-03-16T17:45:11.652Z,11.1
2019-03-16T18:00:12.579Z,10.6
2019-03-16T18:15:04.502Z,10.4
2019-03-16T18:30:09.196Z,10.2
2019-03-16T18:45:05.456Z,10
2019-03-16T19:00:08.072Z,9.9
2019-03-16T19:15:10.768Z,9.9
2019-03-16T19:30:03.956Z,9.8
2019-03-16T19:45:07.657Z,9.6
2019-03-16T20:00:06.838Z,9.4
2019-03-16T20:15:07.459Z,9.6
2019-03-16T20:30:12.990Z,9.8
2019-03-16T20:45:09.113Z,9.7
2019-03-16T21:00:04.993Z,9.7
2019-03-16T21:15:07.226Z,9.7
2019-03-16T21:30:08.407Z,10
2019-03-16T21:45:08.978Z,9.9
2019-03-16T22:00:11.745Z,9.8
2019-03-16T22:15:06.201Z,9.5
2019-03-16T22:30:12.124Z,9.3
2019-03-16T22:45:05.763Z,9.1
2019-03-16T23:00:12.385Z,9.4
2019-03-16T23:15:03.039Z,9.8
2019-03-16T23:30:11.687Z,9.6
2019-03-16T23:45:08.999Z,10.1
